sensor_id;sensor_type;location;lat;lon;timestamp;P1;durP1;ratioP1;P2;durP2;ratioP2
59571;SDS011;70118;45.638;11.714;2023-05-20T08:29:05;8.05;;;2.30;;
59571;SDS011;70118;45.638;11.714;2023-05-20T08:31:32;6.77;;;2.47;;
59571;SDS011;70118;45.638;11.714;2023-05-20T08:33:58;10.35;;;2.92;;
59571;SDS011;70118;45.638;11.714;2023-05-20T08:36:24;8.63;;;2.72;;
59571;SDS011;70118;45.638;11.714;2023-05-20T08:38:50;7.87;;;2.80;;
59571;SDS011;70118;45.638;11.714;2023-05-20T08:41:16;6.28;;;2.30;;
59571;SDS011;70118;45.638;11.714;2023-05-20T08:43:42;7.68;;;2.60;;
59571;SDS011;70118;45.638;11.714;2023-05-20T08:46:09;8.57;;;2.25;;
59571;SDS011;70118;45.638;11.714;2023-05-20T08:48:36;7.03;;;2.28;;
59571;SDS011;70118;45.638;11.714;2023-05-20T08:51:02;6.37;;;2.43;;
59571;SDS011;70118;45.638;11.714;2023-05-20T08:53:29;8.20;;;2.60;;
59571;SDS011;70118;45.638;11.714;2023-05-20T08:55:56;6.25;;;2.33;;
59571;SDS011;70118;45.638;11.714;2023-05-20T08:58:27;7.70;;;2.40;;
59571;SDS011;70118;45.638;11.714;2023-05-20T09:00:53;5.68;;;2.22;;
59571;SDS011;70118;45.638;11.714;2023-05-20T09:03:20;9.77;;;2.47;;
59571;SDS011;70118;45.638;11.714;2023-05-20T09:05:46;7.20;;;2.58;;
59571;SDS011;70118;45.638;11.714;2023-05-20T09:08:12;9.30;;;2.75;;
59571;SDS011;70118;45.638;11.714;2023-05-20T09:10:39;7.47;;;2.40;;
59571;SDS011;70118;45.638;11.714;2023-05-20T09:13:06;6.97;;;2.40;;
59571;SDS011;70118;45.638;11.714;2023-05-20T09:15:34;7.13;;;2.63;;
59571;SDS011;70118;45.638;11.714;2023-05-20T09:18:01;5.38;;;2.10;;
59571;SDS011;70118;45.638;11.714;2023-05-20T09:20:33;7.80;;;3.10;;
59571;SDS011;70118;45.638;11.714;2023-05-20T09:23:01;7.35;;;2.58;;
59571;SDS011;70118;45.638;11.714;2023-05-20T09:25:28;6.77;;;2.43;;
59571;SDS011;70118;45.638;11.714;2023-05-20T09:27:54;9.88;;;3.00;;
59571;SDS011;70118;45.638;11.714;2023-05-20T09:30:21;8.90;;;2.90;;
59571;SDS011;70118;45.638;11.714;2023-05-20T09:35:20;8.23;;;2.70;;
59571;SDS011;70118;45.638;11.714;2023-05-20T09:37:56;7.18;;;2.35;;
59571;SDS011;70118;45.638;11.714;2023-05-20T09:40:24;6.28;;;2.45;;
59571;SDS011;70118;45.638;11.714;2023-05-20T09:43:01;7.20;;;3.08;;
59571;SDS011;70118;45.638;11.714;2023-05-20T09:45:28;7.05;;;2.80;;
59571;SDS011;70118;45.638;11.714;2023-05-20T09:47:54;7.20;;;3.03;;
59571;SDS011;70118;45.638;11.714;2023-05-20T09:50:21;8.25;;;2.97;;
59571;SDS011;70118;45.638;11.714;2023-05-20T09:52:49;8.68;;;2.75;;
59571;SDS011;70118;45.638;11.714;2023-05-20T09:55:17;8.80;;;3.53;;
59571;SDS011;70118;45.638;11.714;2023-05-20T09:57:44;7.32;;;2.85;;
59571;SDS011;70118;45.638;11.714;2023-05-20T10:00:10;8.20;;;3.27;;
59571;SDS011;70118;45.638;11.714;2023-05-20T10:02:43;7.47;;;2.80;;
59571;SDS011;70118;45.638;11.714;2023-05-20T10:05:20;7.07;;;3.35;;
59571;SDS011;70118;45.638;11.714;2023-05-20T10:13:24;6.17;;;3.23;;
59571;SDS011;70118;45.638;11.714;2023-05-20T10:18:47;8.30;;;3.78;;
59571;SDS011;70118;45.638;11.714;2023-05-20T10:21:36;7.18;;;3.05;;
59571;SDS011;70118;45.638;11.714;2023-05-20T10:24:05;6.80;;;3.80;;
59571;SDS011;70118;45.638;11.714;2023-05-20T10:26:39;8.10;;;4.30;;
59571;SDS011;70118;45.638;11.714;2023-05-20T10:29:15;7.75;;;3.72;;
59571;SDS011;70118;45.638;11.714;2023-05-20T10:31:48;8.20;;;3.45;;
59571;SDS011;70118;45.638;11.714;2023-05-20T10:34:16;7.70;;;4.20;;
59571;SDS011;70118;45.638;11.714;2023-05-20T10:36:56;6.35;;;3.05;;
59571;SDS011;70118;45.638;11.714;2023-05-20T10:39:29;5.93;;;2.70;;
59571;SDS011;70118;45.638;11.714;2023-05-20T10:42:08;6.75;;;4.22;;
59571;SDS011;70118;45.638;11.714;2023-05-20T10:47:10;6.95;;;2.97;;
59571;SDS011;70118;45.638;11.714;2023-05-20T10:49:40;9.52;;;4.10;;
59571;SDS011;70118;45.638;11.714;2023-05-20T10:52:13;8.90;;;4.10;;
59571;SDS011;70118;45.638;11.714;2023-05-20T10:54:44;8.63;;;4.32;;
59571;SDS011;70118;45.638;11.714;2023-05-20T10:57:22;7.90;;;4.00;;
59571;SDS011;70118;45.638;11.714;2023-05-20T10:59:50;6.63;;;3.25;;
59571;SDS011;70118;45.638;11.714;2023-05-20T11:02:16;7.20;;;4.05;;
59571;SDS011;70118;45.638;11.714;2023-05-20T11:04:44;7.70;;;3.30;;
59571;SDS011;70118;45.638;11.714;2023-05-20T11:07:10;6.63;;;3.13;;
59571;SDS011;70118;45.638;11.714;2023-05-20T11:09:37;10.15;;;4.50;;
59571;SDS011;70118;45.638;11.714;2023-05-20T11:12:03;6.65;;;3.53;;
59571;SDS011;70118;45.638;11.714;2023-05-20T11:14:29;8.23;;;4.47;;
59571;SDS011;70118;45.638;11.714;2023-05-20T11:16:58;6.33;;;3.50;;
59571;SDS011;70118;45.638;11.714;2023-05-20T11:19:25;8.63;;;5.00;;
59571;SDS011;70118;45.638;11.714;2023-05-20T11:21:51;9.40;;;5.38;;
59571;SDS011;70118;45.638;11.714;2023-05-20T11:24:24;7.38;;;4.15;;
59571;SDS011;70118;45.638;11.714;2023-05-20T11:26:51;8.10;;;4.07;;
59571;SDS011;70118;45.638;11.714;2023-05-20T11:29:18;7.10;;;3.63;;
59571;SDS011;70118;45.638;11.714;2023-05-20T11:31:46;7.47;;;3.78;;
59571;SDS011;70118;45.638;11.714;2023-05-20T11:34:14;7.72;;;3.95;;
59571;SDS011;70118;45.638;11.714;2023-05-20T11:36:42;6.65;;;3.70;;
59571;SDS011;70118;45.638;11.714;2023-05-20T11:39:09;7.78;;;3.80;;
59571;SDS011;70118;45.638;11.714;2023-05-20T11:41:37;7.53;;;3.83;;
59571;SDS011;70118;45.638;11.714;2023-05-20T11:44:04;6.35;;;3.60;;
59571;SDS011;70118;45.638;11.714;2023-05-20T11:46:39;12.07;;;3.75;;
59571;SDS011;70118;45.638;11.714;2023-05-20T11:49:11;8.50;;;3.72;;
59571;SDS011;70118;45.638;11.714;2023-05-20T11:51:38;6.75;;;3.95;;
59571;SDS011;70118;45.638;11.714;2023-05-20T11:54:05;7.20;;;3.60;;
59571;SDS011;70118;45.638;11.714;2023-05-20T11:56:34;7.68;;;3.72;;
59571;SDS011;70118;45.638;11.714;2023-05-20T11:59:02;8.18;;;3.45;;
59571;SDS011;70118;45.638;11.714;2023-05-20T12:01:34;9.13;;;4.20;;
59571;SDS011;70118;45.638;11.714;2023-05-20T12:04:10;7.60;;;3.42;;
59571;SDS011;70118;45.638;11.714;2023-05-20T12:06:40;7.07;;;3.57;;
59571;SDS011;70118;45.638;11.714;2023-05-20T12:09:06;9.77;;;3.90;;
59571;SDS011;70118;45.638;11.714;2023-05-20T12:11:35;9.52;;;3.65;;
59571;SDS011;70118;45.638;11.714;2023-05-20T12:14:03;10.57;;;4.18;;
59571;SDS011;70118;45.638;11.714;2023-05-20T12:16:30;8.33;;;3.70;;
59571;SDS011;70118;45.638;11.714;2023-05-20T12:18:57;7.47;;;3.97;;
59571;SDS011;70118;45.638;11.714;2023-05-20T12:21:23;9.95;;;3.95;;
59571;SDS011;70118;45.638;11.714;2023-05-20T12:23:48;10.17;;;3.63;;
59571;SDS011;70118;45.638;11.714;2023-05-20T12:26:14;8.48;;;3.85;;
59571;SDS011;70118;45.638;11.714;2023-05-20T12:28:40;9.18;;;3.50;;
59571;SDS011;70118;45.638;11.714;2023-05-20T12:31:06;8.77;;;4.07;;
59571;SDS011;70118;45.638;11.714;2023-05-20T12:33:32;7.85;;;3.75;;
59571;SDS011;70118;45.638;11.714;2023-05-20T12:35:58;11.23;;;3.85;;
59571;SDS011;70118;45.638;11.714;2023-05-20T12:38:24;8.05;;;3.72;;
59571;SDS011;70118;45.638;11.714;2023-05-20T12:40:50;8.33;;;4.13;;
59571;SDS011;70118;45.638;11.714;2023-05-20T12:43:16;8.65;;;3.53;;
59571;SDS011;70118;45.638;11.714;2023-05-20T12:45:42;7.90;;;3.78;;
59571;SDS011;70118;45.638;11.714;2023-05-20T12:48:08;6.87;;;3.77;;
59571;SDS011;70118;45.638;11.714;2023-05-20T12:50:34;8.63;;;3.60;;
59571;SDS011;70118;45.638;11.714;2023-05-20T12:53:00;9.13;;;3.88;;
59571;SDS011;70118;45.638;11.714;2023-05-20T12:55:26;7.03;;;3.60;;
59571;SDS011;70118;45.638;11.714;2023-05-20T12:57:52;8.70;;;3.92;;
59571;SDS011;70118;45.638;11.714;2023-05-20T13:00:20;7.30;;;3.50;;
59571;SDS011;70118;45.638;11.714;2023-05-20T13:02:46;7.40;;;3.63;;
59571;SDS011;70118;45.638;11.714;2023-05-20T13:05:12;8.00;;;3.92;;
59571;SDS011;70118;45.638;11.714;2023-05-20T13:07:38;11.23;;;4.32;;
59571;SDS011;70118;45.638;11.714;2023-05-20T13:10:05;8.27;;;3.95;;
59571;SDS011;70118;45.638;11.714;2023-05-20T13:12:32;6.30;;;3.13;;
59571;SDS011;70118;45.638;11.714;2023-05-20T13:14:59;8.40;;;3.92;;
59571;SDS011;70118;45.638;11.714;2023-05-20T13:17:24;7.15;;;3.60;;
59571;SDS011;70118;45.638;11.714;2023-05-20T13:19:51;9.10;;;3.58;;
59571;SDS011;70118;45.638;11.714;2023-05-20T13:22:16;7.13;;;3.70;;
59571;SDS011;70118;45.638;11.714;2023-05-20T13:24:42;9.80;;;3.95;;
59571;SDS011;70118;45.638;11.714;2023-05-20T13:27:08;7.43;;;3.80;;
59571;SDS011;70118;45.638;11.714;2023-05-20T13:29:35;8.25;;;3.80;;
59571;SDS011;70118;45.638;11.714;2023-05-20T13:32:01;6.65;;;3.35;;
59571;SDS011;70118;45.638;11.714;2023-05-20T13:34:28;8.63;;;3.90;;
59571;SDS011;70118;45.638;11.714;2023-05-20T13:36:54;7.13;;;3.70;;
59571;SDS011;70118;45.638;11.714;2023-05-20T13:39:20;7.37;;;3.83;;
59571;SDS011;70118;45.638;11.714;2023-05-20T13:41:46;9.27;;;4.28;;
59571;SDS011;70118;45.638;11.714;2023-05-20T13:44:12;6.73;;;3.50;;
59571;SDS011;70118;45.638;11.714;2023-05-20T13:46:38;7.80;;;3.73;;
59571;SDS011;70118;45.638;11.714;2023-05-20T13:49:04;8.95;;;3.83;;
59571;SDS011;70118;45.638;11.714;2023-05-20T13:51:30;6.93;;;3.60;;
59571;SDS011;70118;45.638;11.714;2023-05-20T13:53:56;7.50;;;3.57;;
59571;SDS011;70118;45.638;11.714;2023-05-20T13:56:22;8.25;;;3.95;;
59571;SDS011;70118;45.638;11.714;2023-05-20T13:58:48;7.55;;;3.45;;
59571;SDS011;70118;45.638;11.714;2023-05-20T14:01:13;7.90;;;3.57;;
59571;SDS011;70118;45.638;11.714;2023-05-20T14:03:39;8.03;;;4.00;;
59571;SDS011;70118;45.638;11.714;2023-05-20T14:06:06;6.40;;;3.58;;
59571;SDS011;70118;45.638;11.714;2023-05-20T14:08:33;6.75;;;3.40;;
59571;SDS011;70118;45.638;11.714;2023-05-20T14:10:59;8.02;;;3.47;;
59571;SDS011;70118;45.638;11.714;2023-05-20T14:13:25;7.70;;;3.43;;
59571;SDS011;70118;45.638;11.714;2023-05-20T14:15:51;7.68;;;3.58;;
59571;SDS011;70118;45.638;11.714;2023-05-20T14:18:19;7.60;;;3.97;;
59571;SDS011;70118;45.638;11.714;2023-05-20T14:20:45;7.43;;;4.25;;
59571;SDS011;70118;45.638;11.714;2023-05-20T14:23:11;6.53;;;3.65;;
59571;SDS011;70118;45.638;11.714;2023-05-20T14:25:37;7.50;;;3.63;;
59571;SDS011;70118;45.638;11.714;2023-05-20T14:28:04;8.32;;;3.70;;
59571;SDS011;70118;45.638;11.714;2023-05-20T14:30:30;7.47;;;3.78;;
59571;SDS011;70118;45.638;11.714;2023-05-20T14:32:56;6.53;;;3.78;;
59571;SDS011;70118;45.638;11.714;2023-05-20T14:35:22;8.23;;;4.07;;
59571;SDS011;70118;45.638;11.714;2023-05-20T14:37:48;7.80;;;3.78;;
59571;SDS011;70118;45.638;11.714;2023-05-20T14:40:14;7.07;;;4.15;;
59571;SDS011;70118;45.638;11.714;2023-05-20T14:42:39;9.00;;;4.50;;
59571;SDS011;70118;45.638;11.714;2023-05-20T14:45:06;8.17;;;3.93;;
59571;SDS011;70118;45.638;11.714;2023-05-20T14:47:32;7.68;;;4.00;;
59571;SDS011;70118;45.638;11.714;2023-05-20T14:49:58;6.72;;;4.03;;
59571;SDS011;70118;45.638;11.714;2023-05-20T14:52:24;7.32;;;4.15;;
59571;SDS011;70118;45.638;11.714;2023-05-20T14:54:50;7.43;;;4.17;;
59571;SDS011;70118;45.638;11.714;2023-05-20T14:57:16;8.43;;;4.43;;
59571;SDS011;70118;45.638;11.714;2023-05-20T14:59:43;9.52;;;4.63;;
59571;SDS011;70118;45.638;11.714;2023-05-20T15:02:09;9.23;;;4.53;;
59571;SDS011;70118;45.638;11.714;2023-05-20T15:04:35;9.23;;;4.25;;
59571;SDS011;70118;45.638;11.714;2023-05-20T15:07:01;8.65;;;4.68;;
59571;SDS011;70118;45.638;11.714;2023-05-20T15:09:26;8.52;;;4.85;;
59571;SDS011;70118;45.638;11.714;2023-05-20T15:11:52;9.00;;;4.77;;
59571;SDS011;70118;45.638;11.714;2023-05-20T15:14:18;8.20;;;4.60;;
59571;SDS011;70118;45.638;11.714;2023-05-20T15:16:44;10.03;;;4.30;;
59571;SDS011;70118;45.638;11.714;2023-05-20T15:19:11;7.82;;;3.70;;
59571;SDS011;70118;45.638;11.714;2023-05-20T15:21:37;9.48;;;4.13;;
59571;SDS011;70118;45.638;11.714;2023-05-20T15:24:04;7.78;;;4.63;;
59571;SDS011;70118;45.638;11.714;2023-05-20T15:26:30;7.57;;;4.20;;
59571;SDS011;70118;45.638;11.714;2023-05-20T15:28:56;8.07;;;4.50;;
59571;SDS011;70118;45.638;11.714;2023-05-20T15:31:22;8.20;;;4.65;;
59571;SDS011;70118;45.638;11.714;2023-05-20T15:33:49;7.20;;;4.38;;
59571;SDS011;70118;45.638;11.714;2023-05-20T15:36:15;8.93;;;4.40;;
59571;SDS011;70118;45.638;11.714;2023-05-20T15:38:41;7.38;;;4.00;;
59571;SDS011;70118;45.638;11.714;2023-05-20T15:41:08;8.45;;;4.05;;
59571;SDS011;70118;45.638;11.714;2023-05-20T15:43:36;7.88;;;4.35;;
59571;SDS011;70118;45.638;11.714;2023-05-20T15:46:02;7.00;;;4.10;;
59571;SDS011;70118;45.638;11.714;2023-05-20T15:48:28;7.20;;;4.20;;
59571;SDS011;70118;45.638;11.714;2023-05-20T15:50:54;7.57;;;4.25;;
59571;SDS011;70118;45.638;11.714;2023-05-20T15:53:20;6.95;;;4.32;;
59571;SDS011;70118;45.638;11.714;2023-05-20T15:55:46;8.10;;;4.30;;
59571;SDS011;70118;45.638;11.714;2023-05-20T15:58:12;8.27;;;4.77;;
59571;SDS011;70118;45.638;11.714;2023-05-20T16:00:38;8.73;;;4.43;;
59571;SDS011;70118;45.638;11.714;2023-05-20T16:03:04;8.35;;;4.38;;
59571;SDS011;70118;45.638;11.714;2023-05-20T16:05:30;7.77;;;4.00;;
59571;SDS011;70118;45.638;11.714;2023-05-20T16:07:56;7.35;;;4.18;;
59571;SDS011;70118;45.638;11.714;2023-05-20T16:10:22;8.15;;;3.90;;
59571;SDS011;70118;45.638;11.714;2023-05-20T16:12:47;7.53;;;4.13;;
59571;SDS011;70118;45.638;11.714;2023-05-20T16:15:13;8.07;;;4.63;;
59571;SDS011;70118;45.638;11.714;2023-05-20T16:17:39;11.18;;;4.82;;
59571;SDS011;70118;45.638;11.714;2023-05-20T16:20:06;9.53;;;4.77;;
59571;SDS011;70118;45.638;11.714;2023-05-20T16:22:33;7.88;;;4.45;;
59571;SDS011;70118;45.638;11.714;2023-05-20T16:24:59;8.63;;;4.55;;
59571;SDS011;70118;45.638;11.714;2023-05-20T16:27:26;7.60;;;4.70;;
59571;SDS011;70118;45.638;11.714;2023-05-20T16:29:51;8.60;;;4.57;;
59571;SDS011;70118;45.638;11.714;2023-05-20T16:32:17;8.40;;;5.23;;
59571;SDS011;70118;45.638;11.714;2023-05-20T16:34:46;8.00;;;4.10;;
59571;SDS011;70118;45.638;11.714;2023-05-20T16:37:13;7.55;;;4.32;;
59571;SDS011;70118;45.638;11.714;2023-05-20T16:39:39;8.15;;;4.25;;
59571;SDS011;70118;45.638;11.714;2023-05-20T16:42:05;9.57;;;4.30;;
59571;SDS011;70118;45.638;11.714;2023-05-20T16:44:33;7.63;;;4.55;;
59571;SDS011;70118;45.638;11.714;2023-05-20T16:47:03;8.60;;;5.03;;
59571;SDS011;70118;45.638;11.714;2023-05-20T16:49:35;9.32;;;5.22;;
59571;SDS011;70118;45.638;11.714;2023-05-20T16:52:01;9.02;;;5.15;;
59571;SDS011;70118;45.638;11.714;2023-05-20T16:54:28;8.90;;;4.97;;
59571;SDS011;70118;45.638;11.714;2023-05-20T16:56:54;8.32;;;4.65;;
59571;SDS011;70118;45.638;11.714;2023-05-20T16:59:19;7.70;;;4.82;;
59571;SDS011;70118;45.638;11.714;2023-05-20T17:01:45;8.20;;;4.63;;
59571;SDS011;70118;45.638;11.714;2023-05-20T17:04:11;8.18;;;4.90;;
59571;SDS011;70118;45.638;11.714;2023-05-20T17:06:37;8.82;;;5.30;;
59571;SDS011;70118;45.638;11.714;2023-05-20T17:09:04;8.93;;;4.67;;
59571;SDS011;70118;45.638;11.714;2023-05-20T17:11:33;8.48;;;4.95;;
59571;SDS011;70118;45.638;11.714;2023-05-20T17:13:59;8.57;;;5.07;;
59571;SDS011;70118;45.638;11.714;2023-05-20T17:16:25;11.40;;;5.57;;
59571;SDS011;70118;45.638;11.714;2023-05-20T17:18:51;8.40;;;5.27;;
59571;SDS011;70118;45.638;11.714;2023-05-20T17:21:17;10.00;;;5.28;;
59571;SDS011;70118;45.638;11.714;2023-05-20T17:23:47;10.50;;;5.53;;
59571;SDS011;70118;45.638;11.714;2023-05-20T17:26:13;10.30;;;4.70;;
59571;SDS011;70118;45.638;11.714;2023-05-20T17:28:40;9.38;;;5.07;;
59571;SDS011;70118;45.638;11.714;2023-05-20T17:31:06;10.43;;;5.00;;
59571;SDS011;70118;45.638;11.714;2023-05-20T17:33:33;10.05;;;5.35;;
59571;SDS011;70118;45.638;11.714;2023-05-20T17:35:59;8.60;;;5.20;;
59571;SDS011;70118;45.638;11.714;2023-05-20T17:38:25;8.73;;;5.53;;
59571;SDS011;70118;45.638;11.714;2023-05-20T17:40:52;11.10;;;5.38;;
59571;SDS011;70118;45.638;11.714;2023-05-20T17:43:18;8.80;;;4.90;;
59571;SDS011;70118;45.638;11.714;2023-05-20T17:45:45;7.10;;;4.85;;
59571;SDS011;70118;45.638;11.714;2023-05-20T17:48:12;10.45;;;4.88;;
59571;SDS011;70118;45.638;11.714;2023-05-20T17:50:38;10.35;;;5.40;;
59571;SDS011;70118;45.638;11.714;2023-05-20T17:53:04;8.70;;;5.70;;
59571;SDS011;70118;45.638;11.714;2023-05-20T17:55:30;9.90;;;4.78;;
59571;SDS011;70118;45.638;11.714;2023-05-20T17:58:01;8.45;;;5.03;;
59571;SDS011;70118;45.638;11.714;2023-05-20T18:00:27;10.23;;;5.28;;
59571;SDS011;70118;45.638;11.714;2023-05-20T18:02:53;9.48;;;5.00;;
59571;SDS011;70118;45.638;11.714;2023-05-20T18:05:25;9.17;;;5.17;;
59571;SDS011;70118;45.638;11.714;2023-05-20T18:07:51;8.43;;;4.65;;
59571;SDS011;70118;45.638;11.714;2023-05-20T18:10:17;9.20;;;5.25;;
59571;SDS011;70118;45.638;11.714;2023-05-20T18:12:43;9.68;;;5.05;;
59571;SDS011;70118;45.638;11.714;2023-05-20T18:15:09;10.00;;;5.20;;
59571;SDS011;70118;45.638;11.714;2023-05-20T18:17:38;7.77;;;4.87;;
59571;SDS011;70118;45.638;11.714;2023-05-20T18:20:04;7.90;;;4.70;;
59571;SDS011;70118;45.638;11.714;2023-05-20T18:22:31;8.82;;;5.10;;
59571;SDS011;70118;45.638;11.714;2023-05-20T18:24:57;9.30;;;4.65;;
59571;SDS011;70118;45.638;11.714;2023-05-20T18:27:23;9.30;;;4.90;;
59571;SDS011;70118;45.638;11.714;2023-05-20T18:29:49;7.43;;;4.60;;
59571;SDS011;70118;45.638;11.714;2023-05-20T18:32:15;9.10;;;4.90;;
59571;SDS011;70118;45.638;11.714;2023-05-20T18:34:41;8.10;;;5.20;;
59571;SDS011;70118;45.638;11.714;2023-05-20T18:37:07;7.45;;;4.43;;
59571;SDS011;70118;45.638;11.714;2023-05-20T18:39:33;7.40;;;5.13;;
59571;SDS011;70118;45.638;11.714;2023-05-20T18:41:59;10.48;;;4.80;;
59571;SDS011;70118;45.638;11.714;2023-05-20T18:44:24;7.05;;;4.50;;
59571;SDS011;70118;45.638;11.714;2023-05-20T18:46:50;8.13;;;4.20;;
59571;SDS011;70118;45.638;11.714;2023-05-20T18:49:17;7.88;;;4.75;;
59571;SDS011;70118;45.638;11.714;2023-05-20T18:51:43;8.73;;;4.95;;
59571;SDS011;70118;45.638;11.714;2023-05-20T18:54:08;8.00;;;4.85;;
59571;SDS011;70118;45.638;11.714;2023-05-20T18:56:34;7.32;;;4.78;;
59571;SDS011;70118;45.638;11.714;2023-05-20T18:59:01;7.90;;;4.67;;
59571;SDS011;70118;45.638;11.714;2023-05-20T19:01:27;8.05;;;4.63;;
59571;SDS011;70118;45.638;11.714;2023-05-20T19:03:52;8.95;;;5.03;;
59571;SDS011;70118;45.638;11.714;2023-05-20T19:06:18;6.97;;;4.50;;
59571;SDS011;70118;45.638;11.714;2023-05-20T19:08:46;7.03;;;4.05;;
59571;SDS011;70118;45.638;11.714;2023-05-20T19:11:13;7.00;;;4.50;;
59571;SDS011;70118;45.638;11.714;2023-05-20T19:13:39;7.07;;;4.45;;
59571;SDS011;70118;45.638;11.714;2023-05-20T19:16:06;9.40;;;5.20;;
59571;SDS011;70118;45.638;11.714;2023-05-20T19:18:32;7.87;;;5.00;;
59571;SDS011;70118;45.638;11.714;2023-05-20T19:20:58;9.23;;;4.93;;
59571;SDS011;70118;45.638;11.714;2023-05-20T19:23:24;7.75;;;4.72;;
59571;SDS011;70118;45.638;11.714;2023-05-20T19:25:50;8.63;;;4.85;;
59571;SDS011;70118;45.638;11.714;2023-05-20T19:28:16;8.43;;;4.60;;
59571;SDS011;70118;45.638;11.714;2023-05-20T19:30:42;7.57;;;5.00;;
59571;SDS011;70118;45.638;11.714;2023-05-20T19:33:08;9.02;;;4.53;;
59571;SDS011;70118;45.638;11.714;2023-05-20T19:35:34;7.88;;;4.88;;
59571;SDS011;70118;45.638;11.714;2023-05-20T19:38:00;8.05;;;4.68;;
59571;SDS011;70118;45.638;11.714;2023-05-20T19:40:29;8.77;;;5.40;;
59571;SDS011;70118;45.638;11.714;2023-05-20T19:42:55;8.88;;;4.70;;
59571;SDS011;70118;45.638;11.714;2023-05-20T19:45:21;7.80;;;4.75;;
59571;SDS011;70118;45.638;11.714;2023-05-20T19:47:48;8.23;;;4.85;;
59571;SDS011;70118;45.638;11.714;2023-05-20T19:50:14;9.38;;;5.28;;
59571;SDS011;70118;45.638;11.714;2023-05-20T19:52:40;10.13;;;4.77;;
59571;SDS011;70118;45.638;11.714;2023-05-20T19:55:06;8.10;;;4.45;;
59571;SDS011;70118;45.638;11.714;2023-05-20T19:57:32;8.52;;;4.60;;
59571;SDS011;70118;45.638;11.714;2023-05-20T19:59:58;7.50;;;4.78;;
59571;SDS011;70118;45.638;11.714;2023-05-20T20:02:24;7.37;;;4.70;;
59571;SDS011;70118;45.638;11.714;2023-05-20T20:04:50;8.35;;;5.20;;
59571;SDS011;70118;45.638;11.714;2023-05-20T20:07:16;8.85;;;5.00;;
59571;SDS011;70118;45.638;11.714;2023-05-20T20:09:42;8.10;;;4.60;;
59571;SDS011;70118;45.638;11.714;2023-05-20T20:12:10;8.05;;;4.72;;
59571;SDS011;70118;45.638;11.714;2023-05-20T20:14:35;6.97;;;4.47;;
59571;SDS011;70118;45.638;11.714;2023-05-20T20:17:02;9.45;;;4.78;;
59571;SDS011;70118;45.638;11.714;2023-05-20T20:19:28;7.63;;;4.20;;
59571;SDS011;70118;45.638;11.714;2023-05-20T20:21:54;8.82;;;5.20;;
59571;SDS011;70118;45.638;11.714;2023-05-20T20:24:21;7.97;;;4.33;;
59571;SDS011;70118;45.638;11.714;2023-05-20T20:26:50;8.77;;;5.03;;
59571;SDS011;70118;45.638;11.714;2023-05-20T20:29:21;7.82;;;4.55;;
59571;SDS011;70118;45.638;11.714;2023-05-20T20:31:47;7.93;;;4.63;;
59571;SDS011;70118;45.638;11.714;2023-05-20T20:34:13;8.38;;;4.85;;
59571;SDS011;70118;45.638;11.714;2023-05-20T20:36:39;8.90;;;5.43;;
59571;SDS011;70118;45.638;11.714;2023-05-20T20:39:11;8.13;;;4.80;;
59571;SDS011;70118;45.638;11.714;2023-05-20T20:41:46;7.60;;;5.00;;
59571;SDS011;70118;45.638;11.714;2023-05-20T20:44:16;7.78;;;4.60;;
59571;SDS011;70118;45.638;11.714;2023-05-20T20:46:47;8.53;;;4.77;;
59571;SDS011;70118;45.638;11.714;2023-05-20T20:49:17;6.97;;;4.35;;
59571;SDS011;70118;45.638;11.714;2023-05-20T20:51:44;7.93;;;4.97;;
59571;SDS011;70118;45.638;11.714;2023-05-20T20:54:10;8.70;;;5.05;;
59571;SDS011;70118;45.638;11.714;2023-05-20T20:56:38;8.68;;;4.72;;
59571;SDS011;70118;45.638;11.714;2023-05-20T20:59:06;9.27;;;5.10;;
59571;SDS011;70118;45.638;11.714;2023-05-20T21:01:34;8.13;;;4.95;;
59571;SDS011;70118;45.638;11.714;2023-05-20T21:04:04;8.88;;;4.85;;
59571;SDS011;70118;45.638;11.714;2023-05-20T21:06:30;7.82;;;4.90;;
59571;SDS011;70118;45.638;11.714;2023-05-20T21:08:56;8.10;;;4.85;;
59571;SDS011;70118;45.638;11.714;2023-05-20T21:11:26;8.37;;;4.73;;
59571;SDS011;70118;45.638;11.714;2023-05-20T21:13:53;11.05;;;4.97;;
59571;SDS011;70118;45.638;11.714;2023-05-20T21:16:20;9.57;;;5.22;;
59571;SDS011;70118;45.638;11.714;2023-05-20T21:18:46;7.75;;;4.90;;
59571;SDS011;70118;45.638;11.714;2023-05-20T21:21:12;8.37;;;4.87;;
59571;SDS011;70118;45.638;11.714;2023-05-20T21:23:39;8.63;;;5.32;;
59571;SDS011;70118;45.638;11.714;2023-05-20T21:26:05;7.68;;;4.90;;
59571;SDS011;70118;45.638;11.714;2023-05-20T21:28:31;8.77;;;5.18;;
59571;SDS011;70118;45.638;11.714;2023-05-20T21:30:58;8.10;;;5.43;;
59571;SDS011;70118;45.638;11.714;2023-05-20T21:33:24;8.43;;;5.10;;
59571;SDS011;70118;45.638;11.714;2023-05-20T21:35:50;8.65;;;4.90;;
59571;SDS011;70118;45.638;11.714;2023-05-20T21:38:16;8.43;;;5.05;;
59571;SDS011;70118;45.638;11.714;2023-05-20T21:40:41;7.30;;;5.27;;
59571;SDS011;70118;45.638;11.714;2023-05-20T21:43:07;8.73;;;4.82;;
59571;SDS011;70118;45.638;11.714;2023-05-20T21:45:33;8.38;;;5.45;;
59571;SDS011;70118;45.638;11.714;2023-05-20T21:47:59;8.43;;;5.68;;
59571;SDS011;70118;45.638;11.714;2023-05-20T21:50:25;8.83;;;5.23;;
59571;SDS011;70118;45.638;11.714;2023-05-20T21:52:51;8.07;;;5.18;;
59571;SDS011;70118;45.638;11.714;2023-05-20T21:55:17;7.78;;;4.75;;
59571;SDS011;70118;45.638;11.714;2023-05-20T21:57:48;8.85;;;5.00;;
59571;SDS011;70118;45.638;11.714;2023-05-20T22:00:15;7.43;;;4.73;;
59571;SDS011;70118;45.638;11.714;2023-05-20T22:02:43;9.35;;;4.93;;
59571;SDS011;70118;45.638;11.714;2023-05-20T22:05:09;9.57;;;4.95;;
59571;SDS011;70118;45.638;11.714;2023-05-20T22:07:39;8.70;;;5.32;;
59571;SDS011;70118;45.638;11.714;2023-05-20T22:10:05;7.88;;;5.07;;
59571;SDS011;70118;45.638;11.714;2023-05-20T22:12:33;8.17;;;4.80;;
59571;SDS011;70118;45.638;11.714;2023-05-20T22:15:00;8.63;;;4.95;;
59571;SDS011;70118;45.638;11.714;2023-05-20T22:17:26;8.60;;;4.80;;
59571;SDS011;70118;45.638;11.714;2023-05-20T22:19:51;7.57;;;4.93;;
59571;SDS011;70118;45.638;11.714;2023-05-20T22:22:18;9.23;;;5.25;;
59571;SDS011;70118;45.638;11.714;2023-05-20T22:24:44;7.87;;;4.67;;
59571;SDS011;70118;45.638;11.714;2023-05-20T22:27:10;7.25;;;4.50;;
59571;SDS011;70118;45.638;11.714;2023-05-20T22:29:36;7.93;;;4.82;;
59571;SDS011;70118;45.638;11.714;2023-05-20T22:32:02;8.97;;;5.43;;
59571;SDS011;70118;45.638;11.714;2023-05-20T22:34:28;7.40;;;4.97;;
59571;SDS011;70118;45.638;11.714;2023-05-20T22:36:55;8.60;;;5.03;;
59571;SDS011;70118;45.638;11.714;2023-05-20T22:39:22;8.52;;;5.07;;
59571;SDS011;70118;45.638;11.714;2023-05-20T22:41:48;7.57;;;5.43;;
59571;SDS011;70118;45.638;11.714;2023-05-20T22:44:14;9.50;;;4.87;;
59571;SDS011;70118;45.638;11.714;2023-05-20T22:46:40;7.70;;;4.78;;
59571;SDS011;70118;45.638;11.714;2023-05-20T22:49:05;8.77;;;4.88;;
59571;SDS011;70118;45.638;11.714;2023-05-20T22:51:31;7.77;;;4.97;;
59571;SDS011;70118;45.638;11.714;2023-05-20T22:53:59;8.13;;;4.95;;
59571;SDS011;70118;45.638;11.714;2023-05-20T22:56:25;7.43;;;4.80;;
59571;SDS011;70118;45.638;11.714;2023-05-20T22:58:51;8.13;;;5.22;;
59571;SDS011;70118;45.638;11.714;2023-05-20T23:01:17;8.47;;;5.13;;
59571;SDS011;70118;45.638;11.714;2023-05-20T23:03:43;7.80;;;4.93;;
59571;SDS011;70118;45.638;11.714;2023-05-20T23:06:10;8.52;;;5.00;;
59571;SDS011;70118;45.638;11.714;2023-05-20T23:08:36;7.93;;;4.97;;
59571;SDS011;70118;45.638;11.714;2023-05-20T23:11:02;8.90;;;5.13;;
59571;SDS011;70118;45.638;11.714;2023-05-20T23:13:28;7.45;;;4.70;;